Lake Balboa, California
Current Conditions -  °F | °C
As of 9:51 PM on Sunday 21 Dec 2014 (Local Time) from KVNY Reporting Station
Clear Clear  
Wind Chill: 66°   Ceiling: Unl
Heat Index: 66°   Visibility: 10mi
Dew Point: 45°   Wind: 10mph
Humidity: 47%   Direction: 350°N
Pressure: 30.07"   Gusts: NA
Location:  34.198°N, 118.49°W
Report Text: KVNY 220551Z 35009KT 10SM CLR 19/07 A3007 RMK AO2 SLP176 T01890072 10200 20183 53004
Loading
Personal Weather Stations






























Interactive Weather Map New forecast layout! Learn more

10-Day Weather Forecast

Advertisements
Track Severe Weather on mobile